Time;durP1;ratioP1;P1;durP2;ratioP2;P2;SDS_P1;SDS_P2;PMS_P1;PMS_P2;Temp;Humidity;BMP_temperature;BMP_pressure;BME280_temperature;BME280_humidity;BME280_pressure;Samples;Min_cycle;Max_cycle;Signal;HPM_P1;HPM_P2
2023/03/30 00:01:54;;;;;;;;;;;12.90;99.90;;;;;;5072759;28;19920;-63
2023/03/30 00:04:21;;;;;;;;;;;12.90;99.90;;;;;;5065021;28;20269;-64
2023/03/30 00:06:47;;;;;;;;;;;12.90;99.90;;;;;;5074102;28;19912;-64
2023/03/30 00:09:13;;;;;;;;;;;12.90;99.90;;;;;;5070158;28;20379;-64
2023/03/30 00:11:38;;;;;;;;;;;12.90;99.90;;;;;;5078670;28;20283;-64
2023/03/30 00:14:04;;;;;;;;;;;12.80;99.90;;;;;;5070248;28;19958;-64
2023/03/30 00:16:30;;;;;;;;;;;12.80;99.90;;;;;;5080705;28;20391;-64
2023/03/30 00:18:56;;;;;;;;;;;12.80;99.90;;;;;;5074356;28;20015;-63
2023/03/30 00:21:22;;;;;;;;;;;12.80;99.90;;;;;;5079011;28;19923;-64
2023/03/30 00:23:48;;;;;;;;;;;12.80;99.90;;;;;;5080242;28;19956;-64
2023/03/30 00:26:14;;;;;;;;;;;12.70;99.90;;;;;;5069161;28;19916;-63
2023/03/30 00:28:39;;;;;;;;;;;12.60;99.90;;;;;;5073683;28;19920;-64
2023/03/30 00:31:05;;;;;;;;;;;12.50;99.90;;;;;;5069841;28;19913;-64
2023/03/30 00:33:31;;;;;;;;;;;12.60;99.90;;;;;;5071891;28;19948;-64
2023/03/30 00:35:57;;;;;;;;;;;12.50;99.90;;;;;;5071722;28;19912;-62
2023/03/30 00:38:24;;;;;;;;;;;12.60;99.90;;;;;;5071322;28;19913;-64
2023/03/30 00:40:55;;;;;;;;;;;12.60;99.90;;;;;;5078687;28;20449;-64
2023/03/30 00:43:21;;;;;;;;;;;12.60;99.90;;;;;;5069285;28;19947;-64
2023/03/30 00:45:46;;;;;;;;;;;12.50;99.90;;;;;;5070259;28;19916;-65
2023/03/30 00:48:20;;;;;;;;;;;12.50;99.90;;;;;;5070310;28;19958;-65
2023/03/30 00:51:08;;;;;;;;;;;12.50;99.90;;;;;;5050273;28;19913;-65
2023/03/30 00:53:36;;;;;;;;;;;12.50;99.90;;;;;;5067748;28;19966;-65
2023/03/30 00:56:03;;;;;;;;;;;12.50;99.90;;;;;;5046007;28;19960;-64
2023/03/30 00:58:30;;;;;;;;;;;12.50;99.90;;;;;;5074977;28;19917;-64
2023/03/30 01:00:57;;;;;;;;;;;12.50;99.90;;;;;;5057608;28;19959;-64
2023/03/30 01:03:26;;;;;;;;;;;12.50;99.90;;;;;;5081154;28;20265;-65
2023/03/30 01:05:53;;;;;;;;;;;12.50;99.90;;;;;;5072464;28;19942;-64
2023/03/30 01:08:19;;;;;;;;;;;12.40;99.90;;;;;;5069188;28;20321;-64
2023/03/30 01:10:45;;;;;;;;;;;12.40;99.90;;;;;;5083944;28;19971;-64
2023/03/30 01:13:12;;;;;;;;;;;12.40;99.90;;;;;;5071458;28;20383;-65
2023/03/30 01:15:43;;;;;;;;;;;12.40;99.90;;;;;;5069673;28;20388;-64
2023/03/30 01:18:09;;;;;;;;;;;12.40;99.90;;;;;;5075039;28;20273;-64
2023/03/30 01:20:35;;;;;;;;;;;12.40;99.90;;;;;;5082777;28;19920;-64
2023/03/30 01:23:27;;;;;;;;;;;12.40;99.90;;;;;;5071042;28;19924;-64
2023/03/30 01:25:55;;;;;;;;;;;12.40;99.90;;;;;;5074538;28;19920;-64
2023/03/30 01:28:40;;;;;;;;;;;12.40;99.90;;;;;;5072269;28;19913;-64
2023/03/30 01:31:26;;;;;;;;;;;12.40;99.90;;;;;;5066944;28;20011;-64
2023/03/30 01:33:51;;;;;;;;;;;12.40;99.90;;;;;;5078065;28;19916;-64
2023/03/30 01:36:17;;;;;;;;;;;12.40;99.90;;;;;;5076529;28;19912;-64
2023/03/30 01:39:01;;;;;;;;;;;12.40;99.90;;;;;;5078327;28;19920;-64
2023/03/30 01:41:33;;;;;;;;;;;12.30;99.90;;;;;;5064637;28;19920;-63
2023/03/30 01:44:06;;;;;;;;;;;12.30;99.90;;;;;;5060426;28;19971;-62
2023/03/30 01:46:36;;;;;;;;;;;12.40;99.90;;;;;;5068503;28;20050;-63
2023/03/30 01:49:11;;;;;;;;;;;12.30;99.90;;;;;;5070528;28;19968;-63
2023/03/30 01:51:48;;;;;;;;;;;12.30;99.90;;;;;;5083191;28;19951;-63
2023/03/30 01:54:18;;;;;;;;;;;12.30;99.90;;;;;;5082661;28;19913;-63
2023/03/30 01:56:47;;;;;;;;;;;12.30;99.90;;;;;;5073722;28;19913;-63
2023/03/30 01:59:23;;;;;;;;;;;12.30;99.90;;;;;;5068015;28;19920;-63
2023/03/30 02:01:52;;;;;;;;;;;12.30;99.90;;;;;;5068532;28;20444;-64
2023/03/30 02:04:19;;;;;;;;;;;12.30;99.90;;;;;;5065605;28;19913;-63
2023/03/30 02:06:46;;;;;;;;;;;12.30;99.90;;;;;;5072966;28;19912;-63
2023/03/30 02:09:14;;;;;;;;;;;12.30;99.90;;;;;;5076075;28;19960;-63
2023/03/30 02:11:42;;;;;;;;;;;12.20;99.90;;;;;;5075252;28;19912;-63
2023/03/30 02:14:08;;;;;;;;;;;12.20;99.90;;;;;;5072654;28;19913;-63
2023/03/30 02:16:41;;;;;;;;;;;12.20;99.90;;;;;;5083147;28;19912;-62
2023/03/30 02:19:07;;;;;;;;;;;12.20;99.90;;;;;;5070083;28;20364;-62
2023/03/30 02:21:36;;;;;;;;;;;12.10;99.90;;;;;;5051302;28;19921;-62
2023/03/30 02:24:03;;;;;;;;;;;12.10;99.90;;;;;;5065275;28;20011;-62
2023/03/30 02:26:29;;;;;;;;;;;12.10;99.90;;;;;;5053639;28;19913;-62
2023/03/30 02:28:55;;;;;;;;;;;12.10;99.90;;;;;;5071756;28;19935;-62
2023/03/30 02:31:21;;;;;;;;;;;12.10;99.90;;;;;;5067465;28;19947;-62
2023/03/30 02:33:46;;;;;;;;;;;12.10;99.90;;;;;;5080347;28;19912;-63
2023/03/30 02:36:36;;;;;;;;;;;12.10;99.90;;;;;;5068135;28;20417;-63
2023/03/30 02:39:09;;;;;;;;;;;12.10;99.90;;;;;;5052928;28;19916;-63
2023/03/30 02:41:54;;;;;;;;;;;12.10;99.90;;;;;;5069343;28;19955;-63
2023/03/30 02:44:40;;;;;;;;;;;12.10;99.90;;;;;;5068445;28;19924;-63
2023/03/30 02:50:21;;;;;;;;;;;12.10;99.90;;;;;;5069896;28;19923;-63
2023/03/30 02:53:09;;;;;;;;;;;12.10;99.90;;;;;;5049660;28;19913;-63
2023/03/30 02:55:55;;;;;;;;;;;12.10;99.90;;;;;;5063375;28;19920;-63
2023/03/30 02:58:42;;;;;;;;;;;12.10;99.90;;;;;;5048596;28;19912;-63
2023/03/30 03:01:37;;;;;;;;;;;12.10;99.90;;;;;;5065956;28;19912;-63
2023/03/30 03:04:04;;;;;;;;;;;12.10;99.90;;;;;;5008369;28;19913;-63
2023/03/30 03:06:31;;;;;;;;;;;12.10;99.90;;;;;;5009700;28;20275;-63
2023/03/30 03:08:57;;;;;;;;;;;12.10;99.90;;;;;;5016442;28;19918;-63
2023/03/30 03:11:22;;;;;;;;;;;12.10;99.90;;;;;;5013082;28;19913;-63
2023/03/30 03:13:48;;;;;;;;;;;12.10;99.90;;;;;;5009431;28;19948;-63
2023/03/30 03:16:14;;;;;;;;;;;12.10;99.90;;;;;;5014386;28;19913;-63
2023/03/30 03:18:43;;;;;;;;;;;12.10;99.90;;;;;;5009682;28;19924;-64
2023/03/30 03:21:10;;;;;;;;;;;12.10;99.90;;;;;;5014102;28;19957;-64
2023/03/30 03:23:36;;;;;;;;;;;12.10;99.90;;;;;;5006648;28;19976;-64
2023/03/30 03:26:02;;;;;;;;;;;12.00;99.90;;;;;;5010641;28;20360;-63
2023/03/30 03:28:28;;;;;;;;;;;12.10;99.90;;;;;;5016382;28;20379;-63
2023/03/30 03:30:55;;;;;;;;;;;12.10;99.90;;;;;;5010677;28;19913;-64
2023/03/30 03:33:27;;;;;;;;;;;12.10;99.90;;;;;;5009534;28;19914;-64
2023/03/30 03:35:59;;;;;;;;;;;12.10;99.90;;;;;;5011541;28;19965;-63
2023/03/30 03:38:28;;;;;;;;;;;12.00;99.90;;;;;;5011920;28;19913;-63
2023/03/30 03:40:54;;;;;;;;;;;12.00;99.90;;;;;;5050456;28;19913;-63
2023/03/30 03:43:20;;;;;;;;;;;12.00;99.90;;;;;;5068106;28;19958;-63
2023/03/30 03:45:46;;;;;;;;;;;12.00;99.90;;;;;;5069028;28;19916;-64
2023/03/30 03:48:13;;;;;;;;;;;12.00;99.90;;;;;;5068455;28;19916;-63
2023/03/30 03:50:39;;;;;;;;;;;12.00;99.90;;;;;;5069047;28;19921;-63
2023/03/30 03:53:04;;;;;;;;;;;12.00;99.90;;;;;;5070572;28;20299;-64
2023/03/30 03:55:33;;;;;;;;;;;12.00;99.90;;;;;;5065144;28;19952;-63
2023/03/30 03:57:59;;;;;;;;;;;12.00;99.90;;;;;;5061236;28;19919;-63
2023/03/30 04:00:25;;;;;;;;;;;12.00;99.90;;;;;;5067771;28;19999;-63
2023/03/30 04:02:51;;;;;;;;;;;12.00;99.90;;;;;;5069010;28;19935;-63
2023/03/30 04:05:16;;;;;;;;;;;12.00;99.90;;;;;;5067609;28;19913;-63
2023/03/30 04:07:45;;;;;;;;;;;12.00;99.90;;;;;;5067198;28;20283;-63
2023/03/30 04:10:11;;;;;;;;;;;12.00;99.90;;;;;;5065166;28;19912;-62
2023/03/30 04:12:37;;;;;;;;;;;12.00;99.90;;;;;;5068277;28;19927;-63
2023/03/30 04:15:04;;;;;;;;;;;12.00;99.90;;;;;;5066195;28;19912;-63
2023/03/30 04:17:32;;;;;;;;;;;12.00;99.90;;;;;;5067971;28;19912;-64
2023/03/30 04:20:04;;;;;;;;;;;12.00;99.90;;;;;;5068186;28;19920;-65
2023/03/30 04:22:32;;;;;;;;;;;11.90;99.90;;;;;;5068951;28;19948;-63
2023/03/30 04:24:58;;;;;;;;;;;11.90;99.90;;;;;;5066706;28;19935;-63
2023/03/30 04:27:24;;;;;;;;;;;11.90;99.90;;;;;;5066884;28;20319;-63
2023/03/30 04:29:50;;;;;;;;;;;11.90;99.90;;;;;;5067678;28;20280;-64
2023/03/30 04:32:19;;;;;;;;;;;11.90;99.90;;;;;;5048161;28;19920;-63
2023/03/30 04:34:45;;;;;;;;;;;11.90;99.90;;;;;;5065402;28;19912;-63
2023/03/30 04:37:16;;;;;;;;;;;11.90;99.90;;;;;;5066367;28;19913;-63
2023/03/30 04:39:45;;;;;;;;;;;11.90;99.90;;;;;;5067741;28;19916;-63
2023/03/30 04:42:13;;;;;;;;;;;11.90;99.90;;;;;;5064956;28;19921;-63
2023/03/30 04:44:41;;;;;;;;;;;11.90;99.90;;;;;;5066433;28;20284;-63
2023/03/30 04:47:06;;;;;;;;;;;11.90;99.90;;;;;;5062459;28;19920;-63
2023/03/30 04:49:32;;;;;;;;;;;11.90;99.90;;;;;;5065999;28;19916;-63
2023/03/30 04:51:57;;;;;;;;;;;11.90;99.90;;;;;;5045661;28;19921;-65
2023/03/30 04:54:23;;;;;;;;;;;11.90;99.90;;;;;;5066943;28;19960;-64
2023/03/30 04:56:49;;;;;;;;;;;11.90;99.90;;;;;;5067849;28;19913;-64
2023/03/30 04:59:14;;;;;;;;;;;11.90;99.90;;;;;;5063012;28;20853;-64
2023/03/30 05:01:40;;;;;;;;;;;11.90;99.90;;;;;;5064770;28;19916;-65
2023/03/30 05:04:06;;;;;;;;;;;11.90;99.90;;;;;;5063075;28;19971;-64
2023/03/30 05:06:32;;;;;;;;;;;11.90;99.90;;;;;;5067108;28;20273;-64
2023/03/30 05:08:57;;;;;;;;;;;11.90;99.90;;;;;;5063745;28;19920;-64
2023/03/30 05:11:23;;;;;;;;;;;11.90;99.90;;;;;;5046226;28;20003;-64
2023/03/30 05:13:50;;;;;;;;;;;11.90;99.90;;;;;;5063591;28;20379;-64
2023/03/30 05:16:16;;;;;;;;;;;11.90;99.90;;;;;;5065207;28;20284;-64
2023/03/30 05:18:42;;;;;;;;;;;11.90;99.90;;;;;;5064564;28;19920;-65
2023/03/30 05:21:07;;;;;;;;;;;11.90;99.90;;;;;;5067823;28;19921;-64
2023/03/30 05:23:33;;;;;;;;;;;11.90;99.90;;;;;;5066057;28;20343;-64
2023/03/30 05:25:59;;;;;;;;;;;11.80;99.90;;;;;;5060949;28;19912;-64
2023/03/30 05:28:24;;;;;;;;;;;11.90;99.90;;;;;;5065985;28;19920;-64
2023/03/30 05:30:53;;;;;;;;;;;11.80;99.90;;;;;;5066893;28;19973;-64
2023/03/30 05:33:20;;;;;;;;;;;11.80;99.90;;;;;;5065576;28;19973;-64
2023/03/30 05:35:46;;;;;;;;;;;11.80;99.90;;;;;;5071057;28;19983;-64
2023/03/30 05:38:11;;;;;;;;;;;11.80;99.90;;;;;;5068486;28;19917;-63
2023/03/30 05:40:37;;;;;;;;;;;11.90;99.90;;;;;;5080002;28;19924;-63
2023/03/30 05:43:03;;;;;;;;;;;11.90;99.90;;;;;;5068716;28;19920;-63
2023/03/30 05:45:28;;;;;;;;;;;11.90;99.90;;;;;;5073162;28;20007;-63
2023/03/30 05:47:54;;;;;;;;;;;11.90;99.90;;;;;;5076804;28;19967;-63
2023/03/30 05:50:20;;;;;;;;;;;12.00;99.90;;;;;;5072296;28;19913;-63
2023/03/30 05:52:46;;;;;;;;;;;12.00;99.90;;;;;;5069916;28;19956;-63
2023/03/30 05:55:12;;;;;;;;;;;12.00;99.90;;;;;;5068445;28;20330;-63
2023/03/30 05:57:38;;;;;;;;;;;12.00;99.90;;;;;;5069998;28;20411;-63
2023/03/30 06:00:05;;;;;;;;;;;12.00;99.90;;;;;;5068748;28;20370;-63
2023/03/30 06:02:31;;;;;;;;;;;12.00;99.90;;;;;;5069398;28;19939;-63
2023/03/30 06:04:57;;;;;;;;;;;12.00;99.90;;;;;;5058718;28;19913;-64
2023/03/30 06:07:23;;;;;;;;;;;12.00;99.90;;;;;;5065172;28;19921;-64
2023/03/30 06:09:49;;;;;;;;;;;12.00;99.90;;;;;;5067873;28;20356;-64
2023/03/30 06:12:14;;;;;;;;;;;12.00;99.90;;;;;;5066527;28;19912;-64
2023/03/30 06:14:40;;;;;;;;;;;12.00;99.90;;;;;;5074589;28;19924;-64
2023/03/30 06:17:07;;;;;;;;;;;12.10;99.90;;;;;;5066106;28;19952;-64
2023/03/30 06:19:33;;;;;;;;;;;12.10;99.90;;;;;;5074367;28;20356;-64
2023/03/30 06:21:58;;;;;;;;;;;12.10;99.90;;;;;;5069662;28;19928;-64
2023/03/30 06:24:24;;;;;;;;;;;12.10;99.90;;;;;;5068456;28;20368;-64
2023/03/30 06:26:50;;;;;;;;;;;12.10;99.90;;;;;;5068426;28;19952;-63
2023/03/30 06:29:15;;;;;;;;;;;12.20;99.90;;;;;;5073938;28;19986;-63
2023/03/30 06:31:41;;;;;;;;;;;12.20;99.90;;;;;;5062669;28;20407;-64
2023/03/30 06:34:07;;;;;;;;;;;12.20;99.90;;;;;;5070129;28;20296;-63
2023/03/30 06:39:36;;;;;;;;;;;12.20;99.90;;;;;;5061460;28;19931;-64
2023/03/30 06:42:03;;;;;;;;;;;12.20;99.90;;;;;;5063586;28;19929;-63
2023/03/30 06:44:28;;;;;;;;;;;12.20;99.90;;;;;;5070827;28;19920;-64
2023/03/30 06:46:55;;;;;;;;;;;12.20;99.90;;;;;;5068079;28;19999;-64
2023/03/30 06:49:20;;;;;;;;;;;12.30;99.90;;;;;;5063026;28;19913;-64
2023/03/30 06:51:46;;;;;;;;;;;12.20;99.90;;;;;;5063704;28;19958;-64
2023/03/30 06:54:12;;;;;;;;;;;12.20;99.90;;;;;;5062804;28;20007;-65
2023/03/30 06:56:37;;;;;;;;;;;12.20;99.90;;;;;;5065384;28;19966;-64
2023/03/30 06:59:04;;;;;;;;;;;12.30;99.90;;;;;;5057117;28;19916;-64
2023/03/30 07:01:29;;;;;;;;;;;12.30;99.90;;;;;;5058873;28;20003;-64
2023/03/30 07:03:55;;;;;;;;;;;12.30;99.90;;;;;;5065221;28;20032;-64
2023/03/30 07:06:21;;;;;;;;;;;12.30;99.90;;;;;;5065803;28;19920;-63
2023/03/30 07:08:47;;;;;;;;;;;12.40;99.90;;;;;;5073768;28;19913;-66
2023/03/30 07:11:13;;;;;;;;;;;12.50;99.90;;;;;;5065414;28;20340;-63
2023/03/30 07:13:39;;;;;;;;;;;12.60;99.90;;;;;;5066858;28;20488;-64
2023/03/30 07:16:05;;;;;;;;;;;12.60;99.90;;;;;;5067015;28;19919;-64
2023/03/30 07:18:31;;;;;;;;;;;12.70;99.90;;;;;;5074640;28;19959;-63
2023/03/30 07:20:58;;;;;;;;;;;12.60;99.90;;;;;;5068794;28;20268;-64
2023/03/30 07:23:23;;;;;;;;;;;12.70;99.90;;;;;;5064802;28;19921;-64
2023/03/30 07:25:50;;;;;;;;;;;12.70;99.90;;;;;;5061774;28;20354;-64
2023/03/30 07:28:15;;;;;;;;;;;12.70;99.90;;;;;;5061679;28;19917;-65
2023/03/30 07:30:41;;;;;;;;;;;12.60;99.90;;;;;;5059769;28;19935;-64
2023/03/30 07:33:07;;;;;;;;;;;12.60;99.90;;;;;;5073309;28;19938;-65
2023/03/30 07:35:32;;;;;;;;;;;12.60;99.90;;;;;;5071145;28;19916;-64
2023/03/30 07:37:58;;;;;;;;;;;12.50;99.90;;;;;;5065357;28;20028;-65
2023/03/30 07:40:23;;;;;;;;;;;12.50;99.90;;;;;;5074847;28;19919;-65
2023/03/30 07:42:49;;;;;;;;;;;12.50;99.90;;;;;;5065672;28;19932;-65
2023/03/30 07:45:15;;;;;;;;;;;12.50;99.90;;;;;;5055253;28;19919;-65
2023/03/30 07:47:41;;;;;;;;;;;12.50;99.90;;;;;;5042840;28;19912;-65
2023/03/30 07:50:07;;;;;;;;;;;12.50;99.90;;;;;;5050173;28;20003;-65
2023/03/30 07:52:33;;;;;;;;;;;12.50;99.90;;;;;;5051629;28;20023;-64
2023/03/30 07:54:58;;;;;;;;;;;12.50;99.90;;;;;;5051234;28;20380;-64
2023/03/30 07:57:24;;;;;;;;;;;12.50;99.90;;;;;;5049728;28;19955;-64
2023/03/30 07:59:50;;;;;;;;;;;12.50;99.90;;;;;;5051298;28;20364;-64
2023/03/30 08:02:16;;;;;;;;;;;12.60;99.90;;;;;;5053293;28;20807;-65
2023/03/30 08:04:43;;;;;;;;;;;12.70;99.90;;;;;;5050820;28;19913;-64
2023/03/30 08:07:09;;;;;;;;;;;12.60;99.90;;;;;;5051266;28;19912;-64
2023/03/30 08:09:35;;;;;;;;;;;12.70;99.90;;;;;;5054512;28;19913;-64
2023/03/30 08:12:01;;;;;;;;;;;12.60;99.90;;;;;;5045410;28;19920;-64
2023/03/30 08:14:26;;;;;;;;;;;12.70;99.90;;;;;;5060147;28;19913;-64
2023/03/30 08:16:52;;;;;;;;;;;12.80;99.90;;;;;;5046715;28;19916;-65
2023/03/30 08:19:19;;;;;;;;;;;12.90;99.90;;;;;;5048537;28;19912;-65
2023/03/30 08:21:44;;;;;;;;;;;12.80;99.90;;;;;;5049825;28;19920;-64
2023/03/30 08:24:10;;;;;;;;;;;12.80;99.90;;;;;;5049155;28;20269;-64
2023/03/30 08:26:36;;;;;;;;;;;12.80;99.90;;;;;;5040136;28;19920;-64
2023/03/30 08:29:02;;;;;;;;;;;12.60;99.90;;;;;;5049085;28;19913;-64
2023/03/30 08:31:31;;;;;;;;;;;12.60;99.90;;;;;;5048880;28;19991;-65
2023/03/30 08:33:57;;;;;;;;;;;12.80;99.90;;;;;;5046449;28;19917;-63
2023/03/30 08:36:23;;;;;;;;;;;12.80;99.90;;;;;;5047884;28;19916;-64
2023/03/30 08:38:49;;;;;;;;;;;12.70;99.90;;;;;;5047650;28;20265;-64
2023/03/30 08:41:35;;;;;;;;;;;12.70;99.90;;;;;;5051469;28;19913;-64
2023/03/30 08:44:03;;;;;;;;;;;12.70;99.90;;;;;;5037065;28;19952;-64
2023/03/30 08:46:29;;;;;;;;;;;12.70;99.90;;;;;;5067463;28;19939;-63
2023/03/30 08:48:58;;;;;;;;;;;12.60;99.90;;;;;;5062543;28;19912;-63
2023/03/30 08:51:27;;;;;;;;;;;12.70;99.90;;;;;;5063267;28;20386;-65
2023/03/30 08:53:56;;;;;;;;;;;12.90;99.90;;;;;;5068433;28;20010;-68
2023/03/30 08:56:25;;;;;;;;;;;12.90;99.90;;;;;;5062589;28;19936;-64
2023/03/30 08:59:13;;;;;;;;;;;13.20;99.90;;;;;;5063993;28;19928;-65
2023/03/30 09:01:39;;;;;;;;;;;13.20;99.90;;;;;;5064963;28;19927;-64
2023/03/30 09:04:17;;;;;;;;;;;13.10;99.90;;;;;;5070171;28;19913;-65
2023/03/30 09:06:45;;;;;;;;;;;13.20;99.90;;;;;;5069345;28;19959;-65
2023/03/30 09:09:13;;;;;;;;;;;13.10;99.90;;;;;;5068083;28;19959;-64
2023/03/30 09:11:39;;;;;;;;;;;13.20;99.90;;;;;;5071495;28;20381;-64
2023/03/30 09:14:06;;;;;;;;;;;13.30;99.90;;;;;;5070862;28;19912;-64
2023/03/30 09:16:38;;;;;;;;;;;13.30;99.90;;;;;;5063283;28;20003;-64
2023/03/30 09:19:05;;;;;;;;;;;13.20;99.90;;;;;;5060304;28;19924;-64
2023/03/30 09:21:30;;;;;;;;;;;13.30;99.90;;;;;;5063091;28;19912;-65
2023/03/30 09:23:59;;;;;;;;;;;13.30;99.90;;;;;;5063307;28;19999;-64
2023/03/30 09:26:33;;;;;;;;;;;13.40;99.90;;;;;;5065174;28;19920;-65
2023/03/30 09:28:58;;;;;;;;;;;13.20;99.90;;;;;;5063604;28;20287;-65
2023/03/30 09:31:27;;;;;;;;;;;13.30;99.90;;;;;;5065046;28;19912;-65
2023/03/30 09:33:52;;;;;;;;;;;13.30;99.90;;;;;;5065536;28;19962;-65
2023/03/30 09:36:38;;;;;;;;;;;13.60;99.90;;;;;;5064442;28;19952;-64
2023/03/30 09:39:08;;;;;;;;;;;13.60;99.90;;;;;;5062384;28;20339;-64
2023/03/30 09:41:47;;;;;;;;;;;13.60;99.90;;;;;;5061926;28;19927;-63
2023/03/30 09:44:26;;;;;;;;;;;13.70;99.90;;;;;;5063923;28;19928;-64
2023/03/30 09:46:56;;;;;;;;;;;13.80;99.90;;;;;;5064833;28;20032;-64
2023/03/30 09:49:25;;;;;;;;;;;13.60;99.90;;;;;;5063495;28;20007;-64
2023/03/30 09:51:53;;;;;;;;;;;13.30;99.90;;;;;;5045367;28;19958;-65
2023/03/30 09:54:20;;;;;;;;;;;13.40;99.90;;;;;;5061657;28;19916;-63
2023/03/30 09:56:50;;;;;;;;;;;13.50;99.90;;;;;;5056061;28;20019;-63
2023/03/30 09:59:18;;;;;;;;;;;13.60;99.90;;;;;;5064134;28;19917;-64
2023/03/30 10:01:45;;;;;;;;;;;13.50;99.90;;;;;;5045707;28;19920;-64
2023/03/30 10:04:11;;;;;;;;;;;13.40;99.90;;;;;;5058014;28;19924;-65
2023/03/30 10:06:38;;;;;;;;;;;13.70;99.90;;;;;;5064214;28;19920;-64
2023/03/30 10:09:05;;;;;;;;;;;13.90;99.90;;;;;;5062910;28;20375;-65
2023/03/30 10:11:41;;;;;;;;;;;14.00;99.90;;;;;;5065043;28;19920;-63
2023/03/30 10:14:30;;;;;;;;;;;14.00;99.90;;;;;;5063290;28;20411;-65
2023/03/30 10:16:57;;;;;;;;;;;14.20;99.90;;;;;;5057564;28;20417;-65
2023/03/30 10:19:23;;;;;;;;;;;14.00;99.90;;;;;;5064920;28;20007;-64
2023/03/30 10:21:56;;;;;;;;;;;14.00;99.90;;;;;;5065594;28;19956;-64
2023/03/30 10:24:23;;;;;;;;;;;14.00;99.90;;;;;;5065279;28;19912;-64
2023/03/30 10:26:54;;;;;;;;;;;13.90;99.90;;;;;;5065468;28;19944;-64
2023/03/30 10:29:21;;;;;;;;;;;13.90;99.90;;;;;;5062168;28;19974;-64
2023/03/30 10:31:48;;;;;;;;;;;13.80;99.90;;;;;;5064832;28;20003;-64
2023/03/30 10:34:19;;;;;;;;;;;13.70;99.90;;;;;;5063813;28;20368;-64
2023/03/30 10:36:46;;;;;;;;;;;13.70;99.90;;;;;;5047480;28;20368;-63
2023/03/30 10:39:21;;;;;;;;;;;13.80;99.90;;;;;;5063537;28;19912;-64
2023/03/30 10:41:48;;;;;;;;;;;14.00;99.90;;;;;;5065250;28;19931;-64
2023/03/30 10:44:20;;;;;;;;;;;13.90;99.90;;;;;;5063228;28;19921;-65
2023/03/30 10:46:47;;;;;;;;;;;13.90;99.90;;;;;;5046587;28;20352;-65
2023/03/30 10:49:32;;;;;;;;;;;13.80;99.90;;;;;;5063838;28;19962;-64
2023/03/30 10:52:05;;;;;;;;;;;13.90;99.90;;;;;;5060455;28;19912;-64
2023/03/30 10:54:40;;;;;;;;;;;14.00;99.90;;;;;;5065377;28;20000;-63
2023/03/30 10:57:09;;;;;;;;;;;14.00;99.90;;;;;;5064501;28;19913;-64
2023/03/30 10:59:37;;;;;;;;;;;14.00;99.90;;;;;;5065121;28;20275;-64
2023/03/30 11:02:38;;;;;;;;;;;13.80;99.90;;;;;;5063414;28;19924;-64
2023/03/30 11:05:34;;;;;;;;;;;13.90;99.90;;;;;;4982620;28;19914;-65
2023/03/30 11:08:05;;;;;;;;;;;14.10;99.90;;;;;;4971052;28;19914;-64
2023/03/30 11:10:38;;;;;;;;;;;14.20;99.90;;;;;;4982297;28;20013;-64
2023/03/30 11:13:05;;;;;;;;;;;14.30;99.90;;;;;;4979293;28;19940;-64
2023/03/30 11:15:57;;;;;;;;;;;14.20;99.90;;;;;;4983276;28;19914;-63
2023/03/30 11:18:38;;;;;;;;;;;14.20;99.90;;;;;;4982085;28;19978;-65
2023/03/30 11:21:26;;;;;;;;;;;14.50;99.90;;;;;;4984834;28;20431;-65
2023/03/30 11:24:12;;;;;;;;;;;14.20;99.90;;;;;;4982501;28;19945;-65
2023/03/30 11:29:51;;;;;;;;;;;14.10;99.90;;;;;;4981341;28;19972;-64
2023/03/30 11:32:42;;;;;;;;;;;14.20;99.90;;;;;;4983817;28;19913;-64
2023/03/30 11:35:46;;;;;;;;;;;14.30;99.90;;;;;;4987897;28;19949;-63
2023/03/30 11:38:34;;;;;;;;;;;14.60;99.90;;;;;;4935341;28;19929;-65
2023/03/30 11:41:11;;;;;;;;;;;14.70;99.90;;;;;;4986960;28;19976;-65
2023/03/30 11:43:37;;;;;;;;;;;14.40;99.90;;;;;;4968995;28;19922;-65
2023/03/30 11:46:07;;;;;;;;;;;14.50;99.90;;;;;;4988619;28;19953;-65
2023/03/30 11:48:52;;;;;;;;;;;14.70;99.90;;;;;;4985555;28;19918;-65
2023/03/30 11:51:26;;;;;;;;;;;15.10;99.90;;;;;;4985927;28;19922;-64
2023/03/30 11:53:55;;;;;;;;;;;15.20;99.90;;;;;;4982731;28;20004;-64
2023/03/30 11:56:21;;;;;;;;;;;15.50;99.90;;;;;;4984148;28;19964;-64
2023/03/30 11:58:53;;;;;;;;;;;15.20;99.90;;;;;;4988408;28;19924;-64
2023/03/30 12:01:19;;;;;;;;;;;15.00;99.90;;;;;;4989909;28;19914;-64
2023/03/30 12:04:14;;;;;;;;;;;15.10;99.90;;;;;;4985609;28;19964;-64
2023/03/30 12:06:40;;;;;;;;;;;14.80;99.90;;;;;;4969075;28;19914;-64
2023/03/30 12:09:25;;;;;;;;;;;14.70;99.90;;;;;;5025531;28;19913;-65
2023/03/30 12:11:54;;;;;;;;;;;14.40;99.90;;;;;;5050234;28;20292;-65
2023/03/30 12:14:30;;;;;;;;;;;14.70;99.90;;;;;;5061091;28;19912;-64
2023/03/30 12:16:59;;;;;;;;;;;15.10;99.90;;;;;;5052041;28;19917;-65
2023/03/30 12:19:29;;;;;;;;;;;15.20;99.90;;;;;;5051268;28;20354;-64
2023/03/30 12:22:02;;;;;;;;;;;15.20;99.90;;;;;;5050870;28;19917;-65
2023/03/30 12:24:37;;;;;;;;;;;15.20;99.90;;;;;;5050189;28;19913;-64
2023/03/30 12:27:03;;;;;;;;;;;15.30;99.90;;;;;;5049846;28;20035;-64
2023/03/30 12:29:46;;;;;;;;;;;15.60;99.90;;;;;;5051747;28;19960;-65
2023/03/30 12:32:18;;;;;;;;;;;15.60;99.90;;;;;;5043305;28;19916;-65
2023/03/30 12:34:44;;;;;;;;;;;15.50;99.90;;;;;;5044691;28;19917;-64
2023/03/30 12:37:22;;;;;;;;;;;15.50;99.90;;;;;;5029866;28;19923;-65
2023/03/30 12:39:56;;;;;;;;;;;15.30;99.90;;;;;;5054634;28;19938;-65
2023/03/30 12:42:34;;;;;;;;;;;15.10;99.90;;;;;;5053101;28;19963;-65
2023/03/30 12:45:03;;;;;;;;;;;15.00;99.90;;;;;;5034504;28;20327;-64
2023/03/30 12:47:38;;;;;;;;;;;14.70;99.90;;;;;;5056783;28;19966;-65
2023/03/30 12:50:13;;;;;;;;;;;14.90;99.90;;;;;;5047227;28;19917;-64
2023/03/30 12:52:38;;;;;;;;;;;14.80;99.90;;;;;;5048770;28;19912;-65
2023/03/30 12:55:22;;;;;;;;;;;14.70;99.90;;;;;;5031919;28;20279;-63
2023/03/30 12:58:06;;;;;;;;;;;14.40;99.90;;;;;;5049515;28;19919;-64
2023/03/30 13:00:43;;;;;;;;;;;14.30;99.90;;;;;;5042998;28;20012;-65
2023/03/30 13:03:21;;;;;;;;;;;14.30;99.90;;;;;;5046730;28;19995;-63
2023/03/30 13:05:48;;;;;;;;;;;14.20;99.90;;;;;;5047228;28;20364;-65
2023/03/30 13:08:20;;;;;;;;;;;14.60;99.90;;;;;;5042077;28;19944;-65
2023/03/30 13:10:46;;;;;;;;;;;14.60;99.90;;;;;;5041723;28;19924;-65
2023/03/30 13:13:16;;;;;;;;;;;15.30;99.90;;;;;;5051431;28;19913;-64
2023/03/30 13:15:53;;;;;;;;;;;15.70;99.90;;;;;;5051213;28;19913;-65
2023/03/30 13:18:24;;;;;;;;;;;16.20;99.90;;;;;;5052097;28;19927;-65
2023/03/30 13:20:50;;;;;;;;;;;16.30;99.90;;;;;;5050398;28;19917;-64
2023/03/30 13:23:19;;;;;;;;;;;16.00;99.90;;;;;;5048102;28;19921;-64
2023/03/30 13:25:48;;;;;;;;;;;16.10;99.90;;;;;;5051618;28;19917;-65
2023/03/30 13:28:32;;;;;;;;;;;16.60;99.90;;;;;;5047710;28;19924;-65
2023/03/30 13:31:05;;;;;;;;;;;16.80;99.90;;;;;;5047907;28;19912;-65
2023/03/30 13:33:33;;;;;;;;;;;17.50;99.90;;;;;;5050823;28;20360;-64
2023/03/30 13:35:59;;;;;;;;;;;17.40;99.90;;;;;;5048595;28;20499;-65
2023/03/30 13:38:43;;;;;;;;;;;16.70;99.90;;;;;;5046375;28;20007;-65
2023/03/30 13:41:25;;;;;;;;;;;16.70;99.90;;;;;;5046687;28;20003;-64
2023/03/30 13:44:00;;;;;;;;;;;17.00;99.90;;;;;;5067441;28;20011;-64
2023/03/30 13:46:40;;;;;;;;;;;17.20;99.90;;;;;;5062763;28;19956;-65
2023/03/30 13:49:14;;;;;;;;;;;16.40;99.90;;;;;;5061681;28;19920;-64
2023/03/30 13:51:43;;;;;;;;;;;17.20;99.90;;;;;;5068729;28;19913;-65
2023/03/30 13:54:12;;;;;;;;;;;17.10;99.90;;;;;;5077656;28;20349;-66
2023/03/30 13:56:40;;;;;;;;;;;17.20;99.90;;;;;;5068636;28;19913;-62
2023/03/30 13:59:09;;;;;;;;;;;17.50;99.90;;;;;;5066598;28;19975;-64
2023/03/30 14:01:35;;;;;;;;;;;18.00;99.90;;;;;;5064243;28;19916;-64
2023/03/30 14:04:04;;;;;;;;;;;17.60;99.90;;;;;;5070818;28;19912;-66
2023/03/30 14:06:33;;;;;;;;;;;17.60;99.90;;;;;;5061017;28;19912;-66
2023/03/30 14:08:58;;;;;;;;;;;16.90;99.90;;;;;;5076414;28;19912;-65
2023/03/30 14:11:31;;;;;;;;;;;17.00;99.90;;;;;;5066666;28;20280;-65
2023/03/30 14:13:57;;;;;;;;;;;17.30;99.90;;;;;;5050531;28;19912;-64
2023/03/30 14:16:24;;;;;;;;;;;17.60;99.90;;;;;;5066393;28;19943;-65
2023/03/30 14:18:50;;;;;;;;;;;17.80;99.90;;;;;;5068982;28;19921;-64
2023/03/30 14:21:22;;;;;;;;;;;17.80;99.90;;;;;;5051181;28;19912;-64
2023/03/30 14:23:52;;;;;;;;;;;17.80;99.90;;;;;;5068576;28;19935;-64
2023/03/30 14:26:22;;;;;;;;;;;17.70;99.90;;;;;;5069282;28;19992;-64
2023/03/30 14:28:53;;;;;;;;;;;17.80;99.90;;;;;;5068524;28;19912;-64
2023/03/30 14:31:19;;;;;;;;;;;17.80;99.90;;;;;;5076209;28;19935;-65
2023/03/30 14:33:45;;;;;;;;;;;17.50;99.90;;;;;;5068491;28;19913;-63
2023/03/30 14:36:14;;;;;;;;;;;17.30;99.90;;;;;;5065046;28;19913;-64
2023/03/30 14:38:41;;;;;;;;;;;17.10;99.90;;;;;;5068309;28;19912;-65
2023/03/30 14:41:30;;;;;;;;;;;16.80;99.90;;;;;;5066426;28;19912;-64